Time;durP1;ratioP1;P1;durP2;ratioP2;P2;SDS_P1;SDS_P2;PMS_P1;PMS_P2;Temp;Humidity;BMP_temperature;BMP_pressure;BME280_temperature;BME280_humidity;BME280_pressure;Samples;Min_cycle;Max_cycle;Signal;HPM_P1;HPM_P2
2023/03/14 00:00:10;;;;;;;4.37;2.47;;;10.30;99.90;;;;;;4987262;28;20237;-79
2023/03/14 00:02:37;;;;;;;6.90;2.37;;;10.20;99.90;;;;;;4984805;28;20287;-78
2023/03/14 00:05:06;;;;;;;3.07;1.97;;;10.20;99.90;;;;;;4975965;28;20232;-78
2023/03/14 00:07:35;;;;;;;5.13;2.60;;;10.20;99.90;;;;;;4987729;28;20291;-78
2023/03/14 00:10:04;;;;;;;4.23;2.57;;;10.10;99.90;;;;;;4991689;28;20230;-78
2023/03/14 00:12:31;;;;;;;7.03;2.60;;;10.10;99.90;;;;;;4984445;28;20805;-78
2023/03/14 00:14:59;;;;;;;5.07;2.70;;;10.00;99.90;;;;;;4982310;28;20239;-78
2023/03/14 00:17:28;;;;;;;5.80;2.10;;;10.10;99.90;;;;;;4978328;28;20333;-78
2023/03/14 00:19:55;;;;;;;3.90;2.17;;;10.00;99.90;;;;;;4983761;28;20236;-77
2023/03/14 00:22:22;;;;;;;4.37;2.30;;;10.00;99.90;;;;;;4981865;28;20591;-77
2023/03/14 00:24:49;;;;;;;3.70;2.50;;;9.90;99.90;;;;;;4986024;28;20249;-77
2023/03/14 00:27:16;;;;;;;3.57;1.97;;;9.90;99.90;;;;;;4982785;28;20321;-77
2023/03/14 00:29:43;;;;;;;5.47;2.20;;;9.90;99.90;;;;;;4984439;28;20227;-78
2023/03/14 00:32:10;;;;;;;6.00;2.60;;;9.90;99.90;;;;;;4978857;28;20217;-78
2023/03/14 00:34:41;;;;;;;4.47;2.17;;;9.90;99.90;;;;;;4985911;28;20280;-78
2023/03/14 00:37:08;;;;;;;7.40;2.47;;;9.90;99.90;;;;;;4979477;28;20230;-78
2023/03/14 00:39:35;;;;;;;4.83;2.20;;;9.90;99.90;;;;;;4980050;28;20593;-78
2023/03/14 00:42:01;;;;;;;6.67;2.57;;;9.80;99.90;;;;;;4987973;28;20298;-78
2023/03/14 00:44:29;;;;;;;6.37;2.47;;;9.80;99.90;;;;;;4983110;28;20222;-78
2023/03/14 00:46:56;;;;;;;6.00;2.23;;;9.80;99.90;;;;;;4983732;28;20225;-78
2023/03/14 00:49:23;;;;;;;6.80;2.60;;;9.80;99.90;;;;;;4983429;28;20998;-78
2023/03/14 00:51:53;;;;;;;8.10;2.87;;;9.80;99.90;;;;;;4981658;28;20217;-78
2023/03/14 00:54:20;;;;;;;6.03;2.60;;;9.80;99.90;;;;;;4996540;28;20228;-77
2023/03/14 00:56:47;;;;;;;5.03;2.30;;;9.70;99.90;;;;;;4985067;28;20222;-78
2023/03/14 00:59:14;;;;;;;8.40;2.40;;;9.70;99.90;;;;;;4995694;28;20284;-78
2023/03/14 01:01:42;;;;;;;4.67;2.40;;;9.70;99.90;;;;;;4982317;28;20226;-77
2023/03/14 01:04:09;;;;;;;6.30;2.40;;;9.70;99.90;;;;;;4981937;28;20933;-78
2023/03/14 01:06:36;;;;;;;5.17;2.20;;;9.70;99.90;;;;;;4986295;28;20232;-78
2023/03/14 01:09:04;;;;;;;5.70;2.60;;;9.60;99.90;;;;;;4988351;28;20218;-77
2023/03/14 01:11:33;;;;;;;6.13;2.57;;;9.60;99.90;;;;;;4988410;28;20229;-77
2023/03/14 01:14:00;;;;;;;5.37;2.30;;;9.60;99.90;;;;;;4987636;28;20217;-78
2023/03/14 01:16:31;;;;;;;7.50;2.40;;;9.60;99.90;;;;;;4987189;28;20280;-78
2023/03/14 01:19:01;;;;;;;5.27;2.30;;;9.60;99.90;;;;;;4994050;28;20656;-78
2023/03/14 01:21:30;;;;;;;6.73;2.50;;;9.60;99.90;;;;;;4989049;28;20769;-78
2023/03/14 01:23:59;;;;;;;6.10;2.20;;;9.60;99.90;;;;;;4987746;28;20813;-79
2023/03/14 01:26:29;;;;;;;4.87;2.50;;;9.60;99.90;;;;;;4987437;28;20300;-79
2023/03/14 01:28:57;;;;;;;6.27;2.77;;;9.60;99.90;;;;;;4987069;28;20307;-79
2023/03/14 01:31:25;;;;;;;6.20;2.30;;;9.70;99.90;;;;;;4988960;28;20247;-79
2023/03/14 01:33:52;;;;;;;5.83;2.43;;;9.60;99.90;;;;;;4990734;28;22474;-78
2023/03/14 01:36:19;;;;;;;5.57;2.50;;;9.60;99.90;;;;;;4987492;28;20254;-78
2023/03/14 01:38:46;;;;;;;5.50;2.23;;;9.60;99.90;;;;;;4995814;28;20235;-78
2023/03/14 01:41:17;;;;;;;6.07;2.67;;;9.70;99.90;;;;;;4990388;28;20268;-78
2023/03/14 01:43:46;;;;;;;5.83;2.30;;;9.70;99.90;;;;;;4986658;28;20212;-78
2023/03/14 01:46:32;;;;;;;4.53;2.53;;;9.70;99.90;;;;;;4980951;28;20257;-78
2023/03/14 01:49:15;;;;;;;6.43;2.33;;;9.70;99.90;;;;;;4985262;28;20220;-78
2023/03/14 01:51:50;;;;;;;7.93;2.90;;;9.60;99.90;;;;;;4987102;28;20224;-78
2023/03/14 01:54:22;;;;;;;7.23;2.77;;;9.60;99.90;;;;;;4994274;28;20232;-78
2023/03/14 01:56:53;;;;;;;5.83;2.50;;;9.60;99.90;;;;;;4985516;28;20232;-78
2023/03/14 01:59:22;;;;;;;4.70;2.73;;;9.50;99.90;;;;;;4984313;28;20272;-79
2023/03/14 02:01:51;;;;;;;4.87;2.80;;;9.50;99.90;;;;;;4988297;28;20229;-79
2023/03/14 02:04:20;;;;;;;8.93;3.13;;;9.50;99.90;;;;;;4987597;28;20233;-78
2023/03/14 02:06:52;;;;;;;7.97;3.07;;;9.50;99.90;;;;;;4992278;28;20313;-78
2023/03/14 02:09:22;;;;;;;5.77;2.70;;;9.50;99.90;;;;;;4981361;28;20229;-78
2023/03/14 02:11:50;;;;;;;4.87;2.60;;;9.50;99.90;;;;;;4988354;28;20311;-78
2023/03/14 02:14:50;;;;;;;4.80;2.60;;;9.50;99.90;;;;;;4963954;28;20220;-78
2023/03/14 02:17:36;;;;;;;6.63;2.63;;;9.50;99.90;;;;;;4988655;28;20240;-78
2023/03/14 02:20:35;;;;;;;6.33;3.33;;;9.50;99.90;;;;;;4984113;28;20224;-78
2023/03/14 02:23:02;;;;;;;6.40;3.17;;;9.50;99.90;;;;;;4987710;28;20226;-78
2023/03/14 02:25:39;;;;;;;9.87;3.40;;;9.40;99.90;;;;;;4982716;28;20226;-78
2023/03/14 02:28:08;;;;;;;6.20;3.20;;;9.40;99.90;;;;;;4986800;28;20220;-78
2023/03/14 02:30:35;;;;;;;9.37;3.30;;;9.40;99.90;;;;;;4979445;28;20234;-78
2023/03/14 02:33:05;;;;;;;6.07;2.63;;;9.40;99.90;;;;;;4989048;28;20225;-78
2023/03/14 02:35:37;;;;;;;6.97;2.80;;;9.30;99.90;;;;;;4989007;28;20252;-78
2023/03/14 02:38:14;;;;;;;5.03;2.80;;;9.30;99.90;;;;;;4982637;28;20255;-78
2023/03/14 02:40:43;;;;;;;10.30;3.07;;;9.30;99.90;;;;;;4986406;28;20230;-78
2023/03/14 02:43:11;;;;;;;5.97;2.80;;;9.40;99.90;;;;;;4990453;28;20230;-78
2023/03/14 02:45:45;;;;;;;6.77;2.67;;;9.40;99.90;;;;;;4986739;28;20228;-78
2023/03/14 02:48:21;;;;;;;8.30;2.73;;;9.40;99.90;;;;;;4989784;28;20224;-78
2023/03/14 02:50:51;;;;;;;5.97;2.83;;;9.40;99.90;;;;;;4987132;28;20255;-78
2023/03/14 02:53:21;;;;;;;6.00;2.53;;;9.40;99.90;;;;;;4990383;28;20222;-78
2023/03/14 02:55:49;;;;;;;8.00;3.10;;;9.40;99.90;;;;;;4981682;28;20229;-77
2023/03/14 02:58:20;;;;;;;6.27;2.97;;;9.50;99.90;;;;;;4979245;28;20314;-78
2023/03/14 03:00:50;;;;;;;8.77;3.13;;;9.40;99.90;;;;;;4982546;28;20217;-78
2023/03/14 03:03:18;;;;;;;6.70;2.73;;;9.40;99.90;;;;;;4981283;28;20636;-78
2023/03/14 03:05:50;;;;;;;5.93;2.93;;;9.40;99.90;;;;;;4986636;28;20219;-78
2023/03/14 03:08:16;;;;;;;6.00;2.87;;;9.40;99.90;;;;;;4993515;28;20322;-78
2023/03/14 03:10:43;;;;;;;4.20;3.00;;;9.40;99.90;;;;;;4983640;28;20234;-78
2023/03/14 03:13:10;;;;;;;7.77;3.07;;;9.40;99.90;;;;;;4979945;28;20225;-78
2023/03/14 03:15:39;;;;;;;6.20;2.70;;;9.40;99.90;;;;;;4976999;28;20230;-78
2023/03/14 03:18:06;;;;;;;6.43;2.97;;;9.50;99.90;;;;;;4986096;28;20232;-78
2023/03/14 03:20:33;;;;;;;5.97;3.03;;;9.40;99.90;;;;;;4984023;28;20238;-78
2023/03/14 03:23:00;;;;;;;5.30;3.00;;;9.50;99.90;;;;;;4989837;28;20228;-78
2023/03/14 03:25:27;;;;;;;6.47;2.80;;;9.50;99.90;;;;;;4983825;28;20241;-78
2023/03/14 03:27:55;;;;;;;5.13;2.80;;;9.50;99.90;;;;;;4990588;28;20276;-78
2023/03/14 03:30:22;;;;;;;5.57;2.13;;;9.60;99.90;;;;;;4988592;28;20222;-78
2023/03/14 03:32:51;;;;;;;5.50;2.40;;;9.50;99.90;;;;;;4988573;28;20212;-79
2023/03/14 03:35:17;;;;;;;6.10;2.60;;;9.60;99.90;;;;;;4982490;28;21486;-79
2023/03/14 03:37:45;;;;;;;8.90;2.90;;;9.60;99.90;;;;;;4978446;28;20233;-78
2023/03/14 03:40:12;;;;;;;6.07;2.37;;;9.60;99.90;;;;;;4982960;28;20229;-79
2023/03/14 03:42:38;;;;;;;6.33;2.67;;;9.60;99.90;;;;;;4980454;28;20273;-78
2023/03/14 03:45:09;;;;;;;5.17;2.60;;;9.60;99.90;;;;;;4980035;28;20223;-78
2023/03/14 03:47:41;;;;;;;6.53;2.70;;;9.60;99.90;;;;;;4987247;28;20301;-78
2023/03/14 03:50:10;;;;;;;5.30;3.00;;;9.60;99.90;;;;;;4986045;28;20938;-78
2023/03/14 03:52:37;;;;;;;7.03;2.73;;;9.60;99.90;;;;;;4995638;28;20587;-78
2023/03/14 03:55:05;;;;;;;4.77;2.60;;;9.70;99.90;;;;;;4987206;28;21825;-79
2023/03/14 03:57:31;;;;;;;7.10;2.90;;;9.70;99.90;;;;;;4984866;28;20222;-78
2023/03/14 03:59:58;;;;;;;6.10;2.50;;;9.80;99.90;;;;;;4989043;28;20221;-78
2023/03/14 04:02:25;;;;;;;7.00;2.80;;;9.80;99.90;;;;;;4982824;28;20239;-78
2023/03/14 04:04:52;;;;;;;4.43;2.40;;;9.80;99.90;;;;;;4983824;28;20214;-78
2023/03/14 04:07:20;;;;;;;6.67;2.70;;;9.80;99.90;;;;;;4992580;28;20225;-78
2023/03/14 04:09:47;;;;;;;6.37;2.60;;;9.80;99.90;;;;;;4990887;28;20251;-78
2023/03/14 04:12:28;;;;;;;8.03;3.20;;;9.70;99.90;;;;;;4976055;28;20224;-77
2023/03/14 04:14:59;;;;;;;6.27;2.90;;;9.70;99.90;;;;;;4981939;28;20886;-78
2023/03/14 04:17:26;;;;;;;5.53;2.60;;;9.70;99.90;;;;;;4980898;28;20292;-77
2023/03/14 04:19:53;;;;;;;5.97;3.20;;;9.70;99.90;;;;;;4979129;28;20307;-78
2023/03/14 04:22:24;;;;;;;8.67;2.67;;;9.60;99.90;;;;;;4983751;28;20243;-78
2023/03/14 04:24:52;;;;;;;5.77;2.33;;;9.60;99.90;;;;;;4978933;28;20715;-77
2023/03/14 04:27:21;;;;;;;8.90;2.57;;;9.60;99.90;;;;;;4976740;28;20225;-77
2023/03/14 04:29:48;;;;;;;7.50;2.80;;;9.60;99.90;;;;;;4987875;28;20213;-77
2023/03/14 04:32:19;;;;;;;5.50;2.43;;;9.70;99.90;;;;;;4979806;28;20224;-77
2023/03/14 04:34:45;;;;;;;4.80;3.00;;;9.70;99.90;;;;;;4987542;28;20225;-77
2023/03/14 04:37:12;;;;;;;6.13;2.67;;;9.70;99.90;;;;;;4980698;28;20233;-78
2023/03/14 04:39:43;;;;;;;5.17;2.50;;;9.70;99.90;;;;;;4999859;28;20240;-78
2023/03/14 04:42:16;;;;;;;6.40;2.73;;;9.70;99.90;;;;;;4985063;28;20226;-78
2023/03/14 04:44:44;;;;;;;7.37;2.80;;;9.70;99.90;;;;;;4987843;28;20761;-77
2023/03/14 04:47:11;;;;;;;8.97;2.70;;;9.70;99.90;;;;;;4985376;28;20653;-78
2023/03/14 04:49:39;;;;;;;5.50;2.97;;;9.70;99.90;;;;;;4988166;28;20629;-78
2023/03/14 04:52:08;;;;;;;5.97;2.93;;;9.70;99.90;;;;;;4987319;28;20231;-78
2023/03/14 04:54:36;;;;;;;7.13;3.07;;;9.70;99.90;;;;;;4990033;28;21982;-80
2023/03/14 04:57:04;;;;;;;6.10;3.37;;;9.80;99.90;;;;;;4985004;28;20291;-78
2023/03/14 04:59:34;;;;;;;7.97;3.13;;;9.80;99.90;;;;;;4989298;28;20280;-78
2023/03/14 05:02:12;;;;;;;7.23;3.20;;;9.80;99.90;;;;;;4988658;28;20302;-78
2023/03/14 05:04:57;;;;;;;7.73;3.10;;;9.80;99.90;;;;;;4996192;28;20306;-78
2023/03/14 05:07:43;;;;;;;6.67;3.03;;;9.80;99.90;;;;;;4989695;28;20231;-78
2023/03/14 05:10:20;;;;;;;5.97;2.73;;;9.90;99.90;;;;;;4983011;28;20908;-78
2023/03/14 05:13:07;;;;;;;6.27;3.00;;;9.90;99.90;;;;;;4982622;28;20228;-78
2023/03/14 05:16:09;;;;;;;5.63;2.97;;;9.90;99.90;;;;;;4990437;28;20233;-78
2023/03/14 05:18:45;;;;;;;8.40;3.23;;;10.00;99.90;;;;;;4990529;28;20541;-78
2023/03/14 05:21:32;;;;;;;7.03;3.37;;;10.00;99.90;;;;;;4983057;28;20243;-84
2023/03/14 05:24:17;;;;;;;6.77;2.73;;;10.00;99.90;;;;;;4993608;28;20225;-83
2023/03/14 05:27:19;;;;;;;5.87;2.73;;;10.00;99.90;;;;;;4981605;28;20339;-80
2023/03/14 05:29:59;;;;;;;8.00;3.23;;;10.00;99.90;;;;;;4990683;28;20228;-84
2023/03/14 05:32:45;;;;;;;7.17;3.07;;;10.10;99.90;;;;;;4989940;28;20240;-82
2023/03/14 05:35:19;;;;;;;6.00;3.30;;;10.00;99.90;;;;;;4994032;28;20236;-82
2023/03/14 05:38:04;;;;;;;9.53;3.30;;;10.00;99.90;;;;;;4980248;28;20263;-82
2023/03/14 05:40:43;;;;;;;10.53;4.10;;;10.00;99.90;;;;;;4980368;28;20229;-81
2023/03/14 05:43:29;;;;;;;8.37;3.53;;;10.00;99.90;;;;;;4982739;28;20292;-79
2023/03/14 05:46:11;;;;;;;6.27;3.20;;;9.90;99.90;;;;;;4988771;28;20660;-80
2023/03/14 05:48:52;;;;;;;5.20;3.40;;;10.00;99.90;;;;;;4986961;28;20230;-80
2023/03/14 05:51:33;;;;;;;5.40;3.70;;;9.90;99.90;;;;;;4986602;28;20283;-80
2023/03/14 05:54:26;;;;;;;4.23;3.00;;;9.80;99.90;;;;;;4987167;28;20221;-79
2023/03/14 05:57:12;;;;;;;5.80;3.47;;;9.80;99.90;;;;;;4984745;28;20259;-79
2023/03/14 06:00:12;;;;;;;7.73;4.20;;;9.70;99.90;;;;;;4985579;28;20233;-79
2023/03/14 06:02:56;;;;;;;7.23;3.60;;;9.70;99.90;;;;;;4983210;28;20301;-82
2023/03/14 06:05:28;;;;;;;8.57;4.07;;;9.60;99.90;;;;;;4988740;28;20255;-79
2023/03/14 06:08:00;;;;;;;6.53;3.90;;;9.60;99.90;;;;;;4984975;28;20242;-81
2023/03/14 06:10:28;;;;;;;5.73;3.90;;;9.50;99.90;;;;;;4984133;28;20222;-84
2023/03/14 06:12:55;;;;;;;5.33;3.43;;;9.50;99.90;;;;;;4994078;28;20235;-83
2023/03/14 06:15:22;;;;;;;6.40;3.83;;;9.50;99.90;;;;;;4983790;28;20249;-82
2023/03/14 06:17:51;;;;;;;6.10;3.50;;;9.50;99.90;;;;;;4984842;28;20218;-83
2023/03/14 06:20:20;;;;;;;6.47;3.30;;;9.50;99.90;;;;;;4985900;28;20232;-83
2023/03/14 06:22:47;;;;;;;8.47;3.53;;;9.40;99.90;;;;;;4985493;28;20249;-82
2023/03/14 06:25:14;;;;;;;5.40;3.33;;;9.40;99.90;;;;;;4997250;28;20320;-83
2023/03/14 06:27:44;;;;;;;8.37;3.43;;;9.40;99.90;;;;;;4991657;28;20225;-85
2023/03/14 06:30:13;;;;;;;7.07;2.97;;;9.40;99.90;;;;;;4980082;28;20287;-82
2023/03/14 06:32:39;;;;;;;7.50;3.30;;;9.40;99.90;;;;;;4986016;28;20223;-83
2023/03/14 06:35:10;;;;;;;5.70;2.77;;;9.30;99.90;;;;;;4978190;28;20237;-83
2023/03/14 06:37:42;;;;;;;4.83;2.70;;;9.30;99.90;;;;;;4996608;28;20218;-84
2023/03/14 06:40:10;;;;;;;5.53;3.00;;;9.30;99.90;;;;;;4981653;28;20227;-83
2023/03/14 06:43:09;;;;;;;6.77;2.90;;;9.30;99.90;;;;;;4975177;28;20225;-82
2023/03/14 06:45:37;;;;;;;7.47;2.73;;;9.40;99.90;;;;;;4979024;28;20258;-82
2023/03/14 06:48:05;;;;;;;5.27;2.70;;;9.30;99.90;;;;;;4984876;28;20229;-83
2023/03/14 06:50:43;;;;;;;6.73;2.80;;;9.30;99.90;;;;;;4982069;28;20240;-82
2023/03/14 06:53:11;;;;;;;6.77;2.97;;;9.40;99.90;;;;;;4990040;28;20229;-81
2023/03/14 06:55:42;;;;;;;7.63;2.70;;;9.40;99.90;;;;;;5002023;28;20280;-83
2023/03/14 06:58:09;;;;;;;4.97;2.57;;;9.40;99.90;;;;;;4991362;28;20942;-82
2023/03/14 07:00:42;;;;;;;4.53;1.87;;;9.50;99.90;;;;;;4978039;28;20219;-85
2023/03/14 07:03:11;;;;;;;7.17;2.23;;;9.50;99.90;;;;;;4973896;28;20231;-84
2023/03/14 07:05:40;;;;;;;6.40;2.10;;;9.60;99.90;;;;;;4980827;28;20288;-83
2023/03/14 07:08:07;;;;;;;5.07;2.30;;;9.60;99.90;;;;;;4980927;28;20234;-81
2023/03/14 07:10:36;;;;;;;7.27;2.40;;;9.60;99.90;;;;;;4980357;28;20224;-81
2023/03/14 07:13:03;;;;;;;6.93;2.07;;;9.60;99.90;;;;;;4997571;28;20218;-82
2023/03/14 07:15:34;;;;;;;5.30;2.13;;;9.60;99.90;;;;;;4983042;28;20239;-81
2023/03/14 07:18:05;;;;;;;7.60;2.20;;;9.60;99.90;;;;;;5002327;28;20317;-83
2023/03/14 07:20:32;;;;;;;6.13;2.03;;;9.60;99.90;;;;;;4985067;28;20233;-81
2023/03/14 07:23:02;;;;;;;7.87;2.83;;;9.60;99.90;;;;;;4984413;28;20231;-81
2023/03/14 07:25:41;;;;;;;6.20;2.03;;;9.60;99.90;;;;;;4990795;28;20258;-81
2023/03/14 07:28:09;;;;;;;5.87;2.10;;;9.60;99.90;;;;;;4994253;28;20701;-82
2023/03/14 07:30:38;;;;;;;9.20;2.40;;;9.60;99.90;;;;;;5000613;28;20225;-82
2023/03/14 07:33:11;;;;;;;3.83;1.57;;;9.70;99.90;;;;;;4993387;28;20249;-81
2023/03/14 07:35:38;;;;;;;6.50;1.87;;;9.70;99.90;;;;;;5000703;28;20241;-84
2023/03/14 07:38:05;;;;;;;4.50;2.00;;;9.70;99.90;;;;;;4993640;28;20664;-82
2023/03/14 07:40:37;;;;;;;6.00;2.33;;;9.80;99.90;;;;;;4988559;28;20639;-81
2023/03/14 07:43:07;;;;;;;6.33;2.20;;;9.80;99.90;;;;;;4988326;28;20222;-84
2023/03/14 07:45:47;;;;;;;5.90;2.20;;;9.90;99.90;;;;;;4993930;28;20838;-81
2023/03/14 07:48:14;;;;;;;3.43;1.80;;;9.90;99.90;;;;;;4991605;28;20250;-82
2023/03/14 07:50:41;;;;;;;4.40;2.07;;;9.90;99.90;;;;;;4995254;28;20220;-82
2023/03/14 07:53:07;;;;;;;5.60;2.10;;;10.00;99.90;;;;;;4991775;28;20237;-84
2023/03/14 07:55:34;;;;;;;4.50;1.70;;;10.10;99.90;;;;;;4990971;28;20320;-81
2023/03/14 07:58:01;;;;;;;6.13;2.13;;;10.10;99.90;;;;;;4987135;28;20766;-81
2023/03/14 08:00:29;;;;;;;5.30;2.03;;;10.10;99.90;;;;;;4988997;28;20237;-84
2023/03/14 08:02:56;;;;;;;6.23;2.00;;;10.20;99.90;;;;;;4994373;28;20248;-83
2023/03/14 08:05:22;;;;;;;3.30;1.40;;;10.30;99.90;;;;;;4991049;28;20235;-83
2023/03/14 08:07:49;;;;;;;2.87;1.43;;;10.30;99.90;;;;;;4986112;28;20219;-81
2023/03/14 08:10:21;;;;;;;4.63;1.60;;;10.30;99.90;;;;;;4983058;28;20232;-82
2023/03/14 08:12:48;;;;;;;3.70;1.30;;;10.30;99.90;;;;;;4990335;28;20228;-82
2023/03/14 08:15:15;;;;;;;3.80;1.90;;;10.30;99.90;;;;;;4989724;28;20268;-85
2023/03/14 08:17:43;;;;;;;3.23;1.30;;;10.40;99.90;;;;;;4992026;28;20233;-84
2023/03/14 08:20:12;;;;;;;4.73;1.33;;;10.30;99.90;;;;;;4989531;28;20242;-83
2023/03/14 08:22:39;;;;;;;4.30;1.60;;;10.30;99.90;;;;;;4991831;28;20224;-82
2023/03/14 08:25:07;;;;;;;3.50;1.60;;;10.30;99.90;;;;;;4996482;28;20240;-82
2023/03/14 08:27:33;;;;;;;3.97;1.87;;;10.30;99.90;;;;;;4987839;28;20229;-83
2023/03/14 08:30:00;;;;;;;4.43;1.50;;;10.30;99.90;;;;;;4991292;28;20231;-81
2023/03/14 08:32:26;;;;;;;4.03;1.70;;;10.40;99.90;;;;;;4993130;28;20231;-81
2023/03/14 08:34:54;;;;;;;4.57;1.87;;;10.40;99.90;;;;;;4995892;28;20310;-82
2023/03/14 08:37:21;;;;;;;5.23;1.60;;;10.50;99.90;;;;;;4989386;28;20245;-82
2023/03/14 08:39:48;;;;;;;3.60;1.67;;;10.60;99.90;;;;;;4987458;28;20228;-82
2023/03/14 08:42:14;;;;;;;3.63;1.60;;;10.70;99.90;;;;;;4999105;28;20779;-83
2023/03/14 08:44:41;;;;;;;3.60;1.60;;;10.70;99.90;;;;;;4994091;28;21103;-82
2023/03/14 08:47:08;;;;;;;6.17;2.40;;;10.80;99.90;;;;;;4999310;28;20229;-84
2023/03/14 08:49:35;;;;;;;3.70;1.93;;;10.80;99.90;;;;;;4995798;28;21090;-82
2023/03/14 08:52:04;;;;;;;5.80;2.13;;;10.90;99.90;;;;;;4986246;28;21036;-82
2023/03/14 08:54:31;;;;;;;4.97;2.10;;;10.90;99.90;;;;;;4983874;28;20231;-82
2023/03/14 08:56:57;;;;;;;3.30;2.10;;;11.00;99.90;;;;;;4994215;28;20591;-82
2023/03/14 08:59:25;;;;;;;5.00;1.93;;;11.00;99.90;;;;;;4993220;28;20272;-82
2023/03/14 09:01:51;;;;;;;6.47;2.00;;;11.00;99.90;;;;;;4994742;28;20218;-82
2023/03/14 09:04:18;;;;;;;5.90;2.27;;;11.00;99.90;;;;;;4992967;28;20219;-83
2023/03/14 09:06:45;;;;;;;5.47;2.40;;;11.10;99.90;;;;;;4999769;28;20226;-82
2023/03/14 09:09:13;;;;;;;6.93;2.73;;;11.10;99.90;;;;;;4990411;28;20224;-82
2023/03/14 09:11:40;;;;;;;4.53;2.60;;;11.10;99.90;;;;;;4993838;28;20226;-82
2023/03/14 09:14:07;;;;;;;5.77;2.70;;;11.10;99.90;;;;;;4983792;28;20234;-83
2023/03/14 09:16:34;;;;;;;6.10;3.37;;;11.10;99.90;;;;;;4987477;28;20718;-84
2023/03/14 09:19:01;;;;;;;6.73;3.23;;;11.00;99.90;;;;;;4992947;28;20226;-83
2023/03/14 09:21:27;;;;;;;8.90;3.80;;;11.00;99.90;;;;;;4988771;28;20751;-82
2023/03/14 09:23:54;;;;;;;8.33;3.77;;;11.00;99.90;;;;;;4990723;28;20226;-82
2023/03/14 09:26:22;;;;;;;6.50;3.40;;;10.90;99.90;;;;;;4993796;28;20230;-82
2023/03/14 09:28:49;;;;;;;7.17;3.40;;;10.90;99.90;;;;;;4992039;28;20228;-82
2023/03/14 09:31:16;;;;;;;6.30;3.70;;;10.90;99.90;;;;;;4992222;28;20222;-82
2023/03/14 09:33:44;;;;;;;6.10;3.00;;;10.90;99.90;;;;;;4995192;28;20235;-82
2023/03/14 09:36:11;;;;;;;7.17;3.50;;;10.80;99.90;;;;;;4996038;28;20792;-81
2023/03/14 09:38:38;;;;;;;6.63;3.77;;;10.80;99.90;;;;;;4994541;28;20974;-82
2023/03/14 09:41:15;;;;;;;6.03;3.50;;;10.80;99.90;;;;;;4996290;28;20694;-82
2023/03/14 09:43:46;;;;;;;6.20;3.37;;;10.80;99.90;;;;;;4992653;28;20218;-82
2023/03/14 09:46:13;;;;;;;7.87;3.87;;;10.80;99.90;;;;;;4989616;28;20234;-82
2023/03/14 09:48:41;;;;;;;8.73;3.63;;;10.80;99.90;;;;;;4994041;28;20579;-82
2023/03/14 09:51:14;;;;;;;6.40;3.40;;;10.80;99.90;;;;;;4998154;28;20240;-82
2023/03/14 09:53:43;;;;;;;6.23;3.70;;;10.80;99.90;;;;;;4988258;28;20222;-84
2023/03/14 09:56:15;;;;;;;7.63;3.73;;;10.80;99.90;;;;;;4988529;28;20260;-82
2023/03/14 09:58:45;;;;;;;4.90;3.37;;;10.80;99.90;;;;;;4990482;28;20229;-82
2023/03/14 10:01:16;;;;;;;8.40;3.90;;;10.80;99.90;;;;;;4993349;28;20236;-83
2023/03/14 10:03:45;;;;;;;5.97;3.23;;;10.70;99.90;;;;;;5003371;28;20214;-82
2023/03/14 10:06:13;;;;;;;6.17;3.00;;;10.70;99.90;;;;;;4996241;28;20251;-82
2023/03/14 10:08:41;;;;;;;4.13;2.73;;;10.60;99.90;;;;;;4991762;28;20223;-82
2023/03/14 10:11:12;;;;;;;3.47;1.27;;;10.60;99.90;;;;;;4999732;28;20251;-83
2023/03/14 10:13:50;;;;;;;2.93;1.07;;;10.50;99.90;;;;;;4989101;28;20221;-84
2023/03/14 10:16:16;;;;;;;1.97;0.77;;;10.30;99.90;;;;;;4987314;28;20228;-83
2023/03/14 10:18:45;;;;;;;2.90;1.10;;;10.20;99.90;;;;;;4992156;28;20225;-83
2023/03/14 10:21:22;;;;;;;1.87;0.80;;;10.00;99.90;;;;;;4990551;28;20224;-83
2023/03/14 10:23:49;;;;;;;2.40;0.90;;;9.70;99.90;;;;;;4984886;28;20279;-82
2023/03/14 10:26:19;;;;;;;0.97;0.60;;;9.60;99.90;;;;;;4986688;28;20228;-83
2023/03/14 10:28:48;;;;;;;1.80;0.70;;;9.30;99.90;;;;;;4988397;28;20791;-82
2023/03/14 10:31:16;;;;;;;1.80;1.10;;;9.10;99.90;;;;;;4986963;28;20237;-82
2023/03/14 10:33:57;;;;;;;1.97;0.67;;;8.90;99.90;;;;;;4985963;28;20389;-81
2023/03/14 10:36:28;;;;;;;2.03;0.93;;;8.80;99.90;;;;;;4989678;28;20232;-82
2023/03/14 10:39:05;;;;;;;1.03;0.60;;;8.50;99.90;;;;;;4987419;28;20252;-81
2023/03/14 10:41:34;;;;;;;0.90;0.77;;;8.30;99.90;;;;;;4981854;28;20259;-81
2023/03/14 10:44:02;;;;;;;1.47;0.70;;;8.20;99.90;;;;;;4989139;28;20296;-82
2023/03/14 10:46:33;;;;;;;2.60;1.97;;;8.00;99.90;;;;;;5000445;28;20308;-82
2023/03/14 10:49:29;;;;;;;1.87;1.00;;;7.70;99.90;;;;;;4987851;28;20221;-81
2023/03/14 10:51:55;;;;;;;0.90;0.50;;;7.50;99.90;;;;;;4985088;28;20220;-82
2023/03/14 10:54:24;;;;;;;1.90;0.70;;;7.30;99.90;;;;;;4982496;28;20238;-84
2023/03/14 10:56:58;;;;;;;0.93;0.50;;;7.10;99.90;;;;;;4987853;28;20225;-82
2023/03/14 10:59:28;;;;;;;1.57;1.00;;;6.90;99.90;;;;;;4987357;28;20750;-81
2023/03/14 11:02:00;;;;;;;2.07;0.60;;;6.70;99.90;;;;;;4984380;28;20226;-82
2023/03/14 11:04:45;;;;;;;0.93;0.50;;;6.50;99.90;;;;;;4983201;28;20253;-81
2023/03/14 11:07:17;;;;;;;1.33;0.60;;;6.30;99.90;;;;;;4983711;28;20233;-81
2023/03/14 11:09:51;;;;;;;0.93;0.50;;;6.10;99.90;;;;;;4986624;28;20698;-81
2023/03/14 11:12:34;;;;;;;1.23;0.60;;;6.00;99.90;;;;;;4988344;28;20470;-83
2023/03/14 11:15:05;;;;;;;1.40;0.50;;;5.90;99.90;;;;;;4981638;28;20231;-82
2023/03/14 11:17:39;;;;;;;3.07;0.60;;;5.80;99.90;;;;;;4982864;28;20253;-81
2023/03/14 11:20:24;;;;;;;5.53;3.57;;;5.70;99.90;;;;;;4985593;28;20225;-80
2023/03/14 11:22:59;;;;;;;2.93;1.53;;;5.60;99.90;;;;;;4986174;28;20251;-80
2023/03/14 11:25:34;;;;;;;1.30;1.10;;;5.50;99.90;;;;;;4985989;28;20235;-79
2023/03/14 11:28:10;;;;;;;2.20;1.20;;;5.30;99.90;;;;;;4991290;28;20272;-80
2023/03/14 11:30:44;;;;;;;1.73;1.23;;;5.30;99.90;;;;;;4988002;28;20255;-79
2023/03/14 11:33:16;;;;;;;1.87;0.83;;;5.20;99.90;;;;;;4999300;28;20229;-80
2023/03/14 11:35:50;;;;;;;3.07;0.73;;;5.10;99.90;;;;;;4983290;28;20219;-79
2023/03/14 11:38:29;;;;;;;0.90;0.60;;;5.00;99.90;;;;;;4988217;28;20299;-79
2023/03/14 11:40:59;;;;;;;3.57;1.67;;;4.90;99.90;;;;;;4998376;28;20249;-80
2023/03/14 11:43:30;;;;;;;1.67;0.97;;;4.80;99.90;;;;;;4987705;28;21136;-82
2023/03/14 11:46:03;;;;;;;1.53;0.97;;;4.70;99.90;;;;;;4982872;28;20291;-79
2023/03/14 11:48:39;;;;;;;3.00;1.00;;;4.70;99.90;;;;;;4983801;28;20228;-79
2023/03/14 11:51:12;;;;;;;1.87;0.70;;;4.60;99.90;;;;;;5004323;28;20231;-79
2023/03/14 11:53:50;;;;;;;4.10;1.30;;;4.60;99.90;;;;;;4988045;28;20222;-80
2023/03/14 11:56:23;;;;;;;1.80;1.00;;;4.60;99.90;;;;;;5004337;28;20253;-79
2023/03/14 11:58:58;;;;;;;6.80;1.03;;;4.60;99.90;;;;;;4983916;28;20236;-80
2023/03/14 12:01:45;;;;;;;4.17;1.07;;;4.70;99.90;;;;;;4989339;28;20233;-77
2023/03/14 12:04:20;;;;;;;6.40;2.90;;;4.70;99.90;;;;;;4981194;28;20228;-78
2023/03/14 12:06:50;;;;;;;5.13;3.23;;;4.80;99.90;;;;;;4973935;28;20222;-78
2023/03/14 12:09:18;;;;;;;2.90;1.00;;;4.90;99.90;;;;;;4980347;28;20237;-77
2023/03/14 12:11:50;;;;;;;10.03;4.03;;;5.00;99.90;;;;;;4985996;28;20233;-77
2023/03/14 12:14:24;;;;;;;5.63;1.73;;;5.10;99.90;;;;;;4978178;28;20226;-77
2023/03/14 12:16:56;;;;;;;7.03;3.30;;;5.20;99.90;;;;;;4985158;28;20235;-78
2023/03/14 12:19:35;;;;;;;6.00;1.43;;;5.20;99.90;;;;;;4981898;28;20232;-78
2023/03/14 12:22:22;;;;;;;6.47;1.40;;;5.30;99.90;;;;;;4981051;28;20235;-77
2023/03/14 12:24:52;;;;;;;7.63;2.67;;;5.20;99.90;;;;;;4975723;28;20248;-77
2023/03/14 12:27:55;;;;;;;3.27;1.50;;;5.30;99.90;;;;;;4982054;28;20235;-77
2023/03/14 12:30:29;;;;;;;7.23;1.50;;;5.20;99.90;;;;;;4972622;28;20224;-78
2023/03/14 12:33:32;;;;;;;10.40;2.53;;;5.30;99.90;;;;;;4979197;28;20236;-77
2023/03/14 12:36:32;;;;;;;7.73;2.00;;;5.20;99.90;;;;;;4982144;28;20279;-77
2023/03/14 12:39:22;;;;;;;4.97;1.20;;;5.20;99.90;;;;;;4994800;28;20227;-76
2023/03/14 12:41:53;;;;;;;7.40;1.40;;;5.20;99.90;;;;;;4981727;28;20903;-76
2023/03/14 12:44:47;;;;;;;7.43;1.73;;;5.20;99.90;;;;;;4983593;28;20228;-76
2023/03/14 12:47:46;;;;;;;6.50;1.73;;;5.20;99.90;;;;;;4980369;28;20317;-76
2023/03/14 12:50:18;;;;;;;8.43;1.60;;;5.30;99.90;;;;;;4984184;28;20220;-77
2023/03/14 12:52:57;;;;;;;4.80;1.50;;;5.30;99.90;;;;;;4981466;28;20260;-77
2023/03/14 12:55:34;;;;;;;5.33;1.60;;;5.30;99.90;;;;;;4982096;28;20229;-76
2023/03/14 12:58:08;;;;;;;9.93;2.00;;;5.40;99.90;;;;;;4983678;28;20316;-76
2023/03/14 13:00:39;;;;;;;8.73;2.07;;;5.40;99.90;;;;;;4988330;28;20235;-76
2023/03/14 13:03:19;;;;;;;9.87;2.10;;;5.50;99.90;;;;;;4991300;28;20283;-76
2023/03/14 13:05:54;;;;;;;7.30;1.80;;;5.50;99.90;;;;;;4988769;28;20324;-76
2023/03/14 13:08:37;;;;;;;8.73;2.27;;;5.50;99.90;;;;;;4984729;28;20315;-76
2023/03/14 13:11:07;;;;;;;7.77;1.90;;;5.50;99.90;;;;;;4986784;28;20244;-76
2023/03/14 13:13:37;;;;;;;8.17;2.03;;;5.60;99.90;;;;;;4990674;28;20214;-76
2023/03/14 13:16:05;;;;;;;8.83;1.93;;;5.60;99.90;;;;;;4982266;28;20229;-76
2023/03/14 13:18:36;;;;;;;10.60;1.70;;;5.60;99.90;;;;;;4987651;28;20224;-76